aviador You're here:

KTCL Decoded Metar

TUSCALOOSA in AL, USA
Report Time2017-09-26 02:53:00
UTC Time2017-09-26 03:40:04
Flight Rules vfr VFR
WindCalm
Visibility9999 m
Phenomena:N/A
Clouds:N/A
Expected CloudBase > 400 ft AGL from Temp-Dew spread
CeilingNone
Temp22°C (ISA +7)
Dew Point21°C (94% RH)
QNH1014 hPa
Density Alt1,309 ft
Elevation161 ft
Report Wrong Elevation
Raw Report
KTCL 260253Z AUTO 00000KT 10SM CLR 22/21 A2993 RMK AO2 SLP134
T02220211 51009=

Extra information for KTCL:More info

Metar Taf Metar & Taf Last 4 Metars F.Rules Stats Wind Profile Meteogram Temp Stats Airport Information Weather charts Add Link Nearby VenuesMetar ALERT Operation Metar Decoded Social comments

AIRNAV info for KTCL